createdAt,value
2023-04-29T00:01:15.492Z,23.00
2023-04-29T00:03:43.159Z,22.37
2023-04-29T00:06:11.733Z,23.90
2023-04-29T00:08:38.548Z,21.90
2023-04-29T00:11:05.468Z,22.27
2023-04-29T00:13:32.452Z,23.00
2023-04-29T00:15:59.242Z,21.50
2023-04-29T00:18:26.081Z,22.47
2023-04-29T00:20:53.038Z,21.87
2023-04-29T00:23:20.017Z,21.50
2023-04-29T00:25:47.060Z,19.93
2023-04-29T00:28:14.049Z,20.33
2023-04-29T00:30:40.914Z,20.53
2023-04-29T00:33:07.957Z,22.13
2023-04-29T00:35:35.430Z,20.07
2023-04-29T00:38:02.133Z,20.40
2023-04-29T00:40:29.320Z,19.83
2023-04-29T00:42:57.239Z,20.90
2023-04-29T00:45:24.248Z,20.30
2023-04-29T00:47:52.812Z,20.10
2023-04-29T00:50:19.855Z,21.20
2023-04-29T00:52:47.471Z,20.23
2023-04-29T00:55:15.249Z,20.20
2023-04-29T00:57:42.689Z,19.83
2023-04-29T01:00:10.296Z,19.10
2023-04-29T01:02:37.949Z,19.97
2023-04-29T01:05:05.102Z,18.93
2023-04-29T01:07:38.648Z,20.33
2023-04-29T01:10:27.540Z,19.23
2023-04-29T01:13:18.365Z,19.33
2023-04-29T01:16:04.262Z,18.33
2023-04-29T01:18:37.732Z,19.63
2023-04-29T01:21:04.758Z,19.07
2023-04-29T01:23:31.900Z,19.53
2023-04-29T01:25:59.277Z,20.50
2023-04-29T01:28:48.842Z,21.80
2023-04-29T01:31:21.511Z,20.07
2023-04-29T01:34:10.906Z,20.10
2023-04-29T01:36:47.825Z,19.67
2023-04-29T01:39:18.397Z,20.43
2023-04-29T01:42:16.866Z,19.27
2023-04-29T01:44:44.019Z,19.63
2023-04-29T01:47:14.242Z,22.80
2023-04-29T01:49:46.976Z,22.70
2023-04-29T01:52:13.695Z,22.17
2023-04-29T01:54:43.558Z,23.33
2023-04-29T01:57:10.812Z,22.80
2023-04-29T01:59:49.282Z,21.07
2023-04-29T02:02:39.121Z,21.53
2023-04-29T02:05:16.572Z,18.83
2023-04-29T02:07:52.688Z,19.67
2023-04-29T02:10:19.787Z,19.97
2023-04-29T02:12:48.815Z,20.30
2023-04-29T02:15:17.758Z,20.23
2023-04-29T02:17:44.659Z,20.60
2023-04-29T02:20:11.985Z,20.47
2023-04-29T02:22:39.491Z,19.43
2023-04-29T02:25:07.315Z,21.00
2023-04-29T02:27:34.165Z,19.97
2023-04-29T02:30:00.910Z,20.23
2023-04-29T02:32:28.512Z,19.47
2023-04-29T02:34:55.285Z,20.30
2023-04-29T02:37:21.992Z,20.73
2023-04-29T02:39:49.023Z,19.03
2023-04-29T02:42:15.698Z,19.80
2023-04-29T02:44:42.691Z,19.10
2023-04-29T02:47:09.594Z,18.23
2023-04-29T02:49:36.311Z,19.43
2023-04-29T02:52:03.074Z,19.27
2023-04-29T02:54:31.876Z,19.27
2023-04-29T02:56:58.933Z,19.77
2023-04-29T02:59:25.754Z,18.37
2023-04-29T03:01:54.225Z,17.90
2023-04-29T03:04:21.032Z,18.43
2023-04-29T03:06:48.728Z,18.70
2023-04-29T03:09:15.702Z,17.47
2023-04-29T03:11:45.283Z,18.33
2023-04-29T03:14:12.589Z,18.73
2023-04-29T03:16:40.234Z,18.60
2023-04-29T03:19:07.355Z,18.37
2023-04-29T03:21:34.325Z,16.83
2023-04-29T03:24:01.244Z,16.20
2023-04-29T03:26:33.297Z,15.67
2023-04-29T03:29:00.167Z,16.17
2023-04-29T03:31:27.561Z,16.77
2023-04-29T03:33:54.497Z,16.80
2023-04-29T03:36:22.183Z,16.40
2023-04-29T03:39:01.659Z,16.60
2023-04-29T03:41:29.399Z,18.20
2023-04-29T03:44:00.707Z,17.73
2023-04-29T03:46:29.067Z,17.73
2023-04-29T03:48:58.737Z,17.90
2023-04-29T03:51:25.933Z,16.87
2023-04-29T03:53:59.081Z,17.87
2023-04-29T03:56:26.342Z,17.40
2023-04-29T03:58:53.515Z,17.53
2023-04-29T04:01:22.354Z,16.97
2023-04-29T04:03:49.659Z,17.87
2023-04-29T04:06:16.672Z,16.77
2023-04-29T04:08:43.833Z,17.70
2023-04-29T04:11:15.387Z,17.90
2023-04-29T04:13:45.943Z,19.50
2023-04-29T04:16:13.199Z,19.37
2023-04-29T04:18:40.236Z,19.67
2023-04-29T04:21:11.614Z,19.93
2023-04-29T04:23:41.257Z,20.20
2023-04-29T04:26:10.340Z,20.87
2023-04-29T04:28:52.635Z,22.30
2023-04-29T04:31:27.811Z,21.37
2023-04-29T04:33:54.605Z,21.47
2023-04-29T04:36:21.616Z,22.30
2023-04-29T04:38:48.537Z,22.67
2023-04-29T04:41:15.433Z,21.77
2023-04-29T04:43:44.528Z,21.73
2023-04-29T04:46:20.834Z,22.83
2023-04-29T04:49:07.819Z,22.40
2023-04-29T04:51:40.553Z,22.47
2023-04-29T04:54:07.508Z,21.60
2023-04-29T04:56:37.171Z,21.83
2023-04-29T04:59:05.373Z,20.70
2023-04-29T05:01:34.273Z,21.50
2023-04-29T05:04:02.743Z,21.50
2023-04-29T05:06:30.963Z,21.20
2023-04-29T05:08:57.893Z,20.53
2023-04-29T05:11:25.058Z,21.27
2023-04-29T05:14:07.685Z,20.33
2023-04-29T05:16:34.508Z,20.57
2023-04-29T05:19:01.478Z,20.43
2023-04-29T05:21:32.295Z,19.77
2023-04-29T05:24:00.023Z,19.83
2023-04-29T05:26:26.717Z,19.47
2023-04-29T05:28:57.078Z,20.83
2023-04-29T05:31:26.428Z,20.63
2023-04-29T05:33:53.457Z,20.23
2023-04-29T05:36:20.711Z,21.97
2023-04-29T05:38:47.493Z,19.73
2023-04-29T05:41:14.797Z,20.03
2023-04-29T05:43:59.415Z,19.37
2023-04-29T05:46:26.721Z,19.03
2023-04-29T05:48:54.124Z,19.23
2023-04-29T05:51:21.475Z,19.50
2023-04-29T05:53:49.256Z,20.80
2023-04-29T05:56:16.615Z,21.20
2023-04-29T05:58:43.549Z,20.30
2023-04-29T06:01:10.287Z,20.10
2023-04-29T06:03:37.525Z,20.80
2023-04-29T06:06:34.481Z,20.43
2023-04-29T06:09:27.466Z,20.00
2023-04-29T06:11:58.055Z,20.73
2023-04-29T06:14:27.206Z,19.33
2023-04-29T06:16:54.419Z,20.27
2023-04-29T06:19:25.195Z,19.90
2023-04-29T06:27:58.606Z,20.83
2023-04-29T06:30:28.480Z,19.80
2023-04-29T06:32:55.898Z,19.77
2023-04-29T06:35:25.418Z,19.63
2023-04-29T06:38:01.640Z,19.37
2023-04-29T06:40:38.379Z,17.83
2023-04-29T06:43:24.340Z,18.70
2023-04-29T06:46:10.699Z,17.63
2023-04-29T06:48:44.413Z,17.13
2023-04-29T06:51:11.245Z,17.47
2023-04-29T06:53:39.520Z,17.83
2023-04-29T06:56:06.993Z,17.57
2023-04-29T06:58:34.060Z,18.13
2023-04-29T07:01:01.040Z,17.83
2023-04-29T07:03:28.050Z,17.53
2023-04-29T07:05:54.870Z,17.07
2023-04-29T07:08:21.705Z,18.83
2023-04-29T07:10:56.670Z,18.60
2023-04-29T07:13:24.493Z,18.13
2023-04-29T07:15:51.754Z,18.47
2023-04-29T07:18:18.633Z,18.70
2023-04-29T07:20:46.081Z,19.77
2023-04-29T07:23:13.187Z,19.20
2023-04-29T07:25:41.197Z,19.13
2023-04-29T07:28:11.467Z,17.60
2023-04-29T07:30:40.920Z,18.47
2023-04-29T07:33:08.268Z,19.40
2023-04-29T07:35:35.077Z,17.77
2023-04-29T07:38:02.245Z,18.53
2023-04-29T07:40:31.238Z,17.93
2023-04-29T07:42:59.036Z,17.70
2023-04-29T07:45:26.712Z,16.67
2023-04-29T07:47:53.881Z,17.57
2023-04-29T07:50:21.048Z,17.40
2023-04-29T07:52:48.063Z,17.43
2023-04-29T07:55:17.171Z,18.90
2023-04-29T07:57:44.097Z,17.17
2023-04-29T08:00:12.378Z,17.90
2023-04-29T08:02:43.124Z,16.83
2023-04-29T08:05:13.552Z,17.00
2023-04-29T08:07:40.659Z,16.87
2023-04-29T08:10:08.013Z,17.07
2023-04-29T08:12:39.081Z,16.07
2023-04-29T08:15:09.745Z,16.30
2023-04-29T08:17:46.724Z,15.63
2023-04-29T08:20:13.877Z,15.13
2023-04-29T08:22:40.952Z,15.97
2023-04-29T08:25:08.731Z,15.07
2023-04-29T08:27:36.135Z,14.97
2023-04-29T08:30:03.169Z,14.67
2023-04-29T08:32:30.694Z,15.27
2023-04-29T08:34:57.899Z,14.93
2023-04-29T08:37:24.837Z,14.87
2023-04-29T08:39:51.491Z,14.77
2023-04-29T08:42:21.710Z,15.10
2023-04-29T08:44:49.689Z,14.97
2023-04-29T08:47:16.847Z,15.27
2023-04-29T08:49:43.726Z,13.77
2023-04-29T08:52:10.812Z,14.63
2023-04-29T08:54:37.658Z,14.97
2023-04-29T08:57:05.678Z,15.93
2023-04-29T08:59:32.681Z,15.70
2023-04-29T09:02:00.430Z,15.30
2023-04-29T09:04:30.906Z,15.73
2023-04-29T09:06:58.793Z,15.07
2023-04-29T09:09:26.550Z,15.40
2023-04-29T09:11:53.579Z,15.53
2023-04-29T09:14:20.841Z,14.83
2023-04-29T09:16:47.905Z,14.27
2023-04-29T09:19:34.529Z,14.07
2023-04-29T09:22:02.616Z,14.40
2023-04-29T09:24:31.619Z,14.90
2023-04-29T09:26:59.440Z,14.77
2023-04-29T09:29:26.535Z,14.50
2023-04-29T09:31:53.889Z,14.50
2023-04-29T09:34:38.403Z,12.70
2023-04-29T09:37:23.364Z,13.83
2023-04-29T09:39:50.656Z,13.53
2023-04-29T09:42:17.828Z,13.77
2023-04-29T09:44:45.801Z,14.70
2023-04-29T09:47:13.524Z,14.43
2023-04-29T09:49:42.764Z,14.30
2023-04-29T09:52:15.214Z,14.03
2023-04-29T09:54:43.698Z,13.50
2023-04-29T09:57:14.629Z,14.00
2023-04-29T09:59:42.118Z,13.63
2023-04-29T10:02:20.910Z,12.80
2023-04-29T10:04:54.809Z,12.93
2023-04-29T10:07:22.443Z,12.10
2023-04-29T10:09:49.334Z,12.20
2023-04-29T10:12:18.092Z,12.67
2023-04-29T10:14:51.612Z,12.03
2023-04-29T10:17:25.224Z,12.03
2023-04-29T10:20:07.648Z,11.07
2023-04-29T10:22:44.193Z,11.13
2023-04-29T10:25:12.366Z,11.20
2023-04-29T10:27:39.619Z,11.00
2023-04-29T10:30:07.895Z,12.93
2023-04-29T10:32:47.177Z,11.90
2023-04-29T10:35:23.614Z,11.80
2023-04-29T10:37:51.071Z,11.37
2023-04-29T10:40:23.211Z,11.67
2023-04-29T10:42:52.414Z,10.97
2023-04-29T10:45:22.918Z,11.67
2023-04-29T10:48:10.969Z,12.07
2023-04-29T10:50:47.048Z,12.67
2023-04-29T10:53:20.356Z,11.43
2023-04-29T10:55:48.688Z,11.07
2023-04-29T10:58:37.346Z,11.67
2023-04-29T11:01:04.628Z,11.10
2023-04-29T11:04:05.110Z,9.77
2023-04-29T11:06:38.354Z,11.50
2023-04-29T11:09:16.272Z,11.90
2023-04-29T11:17:37.883Z,11.87
2023-04-29T11:20:14.221Z,11.90
2023-04-29T11:22:41.305Z,11.77
2023-04-29T11:25:11.730Z,12.53
2023-04-29T11:27:40.324Z,11.73
2023-04-29T11:30:07.774Z,13.00
2023-04-29T11:32:43.006Z,11.60
2023-04-29T11:35:19.677Z,11.40
2023-04-29T11:37:47.610Z,11.33
2023-04-29T11:40:14.964Z,9.67
2023-04-29T11:42:49.384Z,10.20
2023-04-29T11:45:19.815Z,10.40
2023-04-29T11:47:48.081Z,10.13
2023-04-29T11:50:17.891Z,11.07
2023-04-29T11:52:46.753Z,10.37
2023-04-29T11:55:14.787Z,10.80
2023-04-29T11:57:41.865Z,10.20
2023-04-29T12:00:13.334Z,10.10
2023-04-29T12:02:45.184Z,10.57
2023-04-29T12:05:17.533Z,9.57
2023-04-29T12:07:44.796Z,9.80
2023-04-29T12:10:12.247Z,10.27
2023-04-29T12:12:46.825Z,9.70
2023-04-29T12:15:19.961Z,10.43
2023-04-29T12:17:47.687Z,9.00
2023-04-29T12:20:14.713Z,9.80
2023-04-29T12:22:43.824Z,10.00
2023-04-29T12:25:11.154Z,10.30
2023-04-29T12:27:41.567Z,10.43
2023-04-29T12:30:09.865Z,8.90
2023-04-29T12:32:37.336Z,10.03
2023-04-29T12:35:04.347Z,10.03
2023-04-29T12:37:33.465Z,9.77
2023-04-29T12:40:00.606Z,8.73
2023-04-29T12:42:33.722Z,9.70
2023-04-29T12:45:01.167Z,10.10
2023-04-29T12:47:33.899Z,8.30
2023-04-29T12:50:01.161Z,8.80
2023-04-29T12:52:27.929Z,9.30
2023-04-29T12:54:54.845Z,9.40
2023-04-29T12:57:23.058Z,8.83
2023-04-29T12:59:49.884Z,8.53
2023-04-29T13:02:16.747Z,8.43
2023-04-29T13:04:43.938Z,8.60
2023-04-29T13:07:11.026Z,8.60
2023-04-29T13:09:38.354Z,8.10
2023-04-29T13:12:05.719Z,8.47
2023-04-29T13:14:32.500Z,8.40
2023-04-29T13:16:59.339Z,8.17
2023-04-29T13:19:41.162Z,9.27
2023-04-29T13:22:13.691Z,9.47
2023-04-29T13:24:40.651Z,8.63
2023-04-29T13:27:07.495Z,8.07
2023-04-29T13:29:34.266Z,8.43
2023-04-29T13:32:01.270Z,8.63
2023-04-29T13:34:28.475Z,8.10
2023-04-29T13:36:55.236Z,7.53
2023-04-29T13:39:23.602Z,8.73
2023-04-29T13:41:51.029Z,8.17
2023-04-29T13:44:29.267Z,8.47
2023-04-29T13:47:01.707Z,8.87
2023-04-29T13:50:03.320Z,8.90
2023-04-29T13:53:01.455Z,8.57
2023-04-29T14:00:19.318Z,7.93
2023-04-29T14:05:23.502Z,8.90
2023-04-29T14:07:50.677Z,8.10
2023-04-29T14:10:17.590Z,8.10
2023-04-29T14:12:44.824Z,9.13
2023-04-29T14:15:12.366Z,9.30
2023-04-29T14:17:39.360Z,7.67
2023-04-29T14:20:07.002Z,9.33
2023-04-29T14:22:33.824Z,7.67
2023-04-29T14:25:00.694Z,8.70
2023-04-29T14:27:27.478Z,8.20
2023-04-29T14:29:54.478Z,7.60
2023-04-29T14:32:21.279Z,7.77
2023-04-29T14:34:48.442Z,8.47
2023-04-29T14:37:15.611Z,8.37
2023-04-29T14:39:42.445Z,8.27
2023-04-29T14:42:09.479Z,8.00
2023-04-29T14:44:36.464Z,8.73
2023-04-29T14:47:04.354Z,8.53
2023-04-29T14:49:31.779Z,7.87
2023-04-29T14:51:59.042Z,7.90
2023-04-29T14:54:27.209Z,8.73
2023-04-29T14:56:54.199Z,7.20
2023-04-29T14:59:21.170Z,8.73
2023-04-29T15:01:48.281Z,7.83
2023-04-29T15:04:16.134Z,7.80
2023-04-29T15:06:43.265Z,9.40
2023-04-29T15:09:10.675Z,8.30
2023-04-29T15:11:37.607Z,8.47
2023-04-29T15:14:04.429Z,8.47
2023-04-29T15:16:31.686Z,7.60
2023-04-29T15:18:59.102Z,7.77
2023-04-29T15:21:27.159Z,8.00
2023-04-29T15:23:54.482Z,7.07
2023-04-29T15:26:21.945Z,7.67
2023-04-29T15:28:49.410Z,7.77
2023-04-29T15:31:16.443Z,7.57
2023-04-29T15:33:43.736Z,7.33
2023-04-29T15:36:10.767Z,7.33
2023-04-29T15:38:37.694Z,7.67
2023-04-29T15:41:04.517Z,8.07
2023-04-29T15:43:32.914Z,7.23
2023-04-29T15:46:00.267Z,7.50
2023-04-29T15:48:27.309Z,7.47
2023-04-29T15:50:54.163Z,7.37
2023-04-29T15:53:21.182Z,7.23
2023-04-29T15:55:48.090Z,7.07
2023-04-29T15:58:14.893Z,6.80
2023-04-29T16:00:42.171Z,7.00
2023-04-29T16:03:08.992Z,6.77
2023-04-29T16:05:38.795Z,6.23
2023-04-29T16:08:06.702Z,7.17
2023-04-29T16:10:33.992Z,6.40
2023-04-29T16:13:09.423Z,6.47
2023-04-29T16:16:02.457Z,7.03
2023-04-29T16:18:29.403Z,5.93
2023-04-29T16:20:56.766Z,7.13
2023-04-29T16:23:24.047Z,6.30
2023-04-29T16:25:50.877Z,6.07
2023-04-29T16:28:17.901Z,6.43
2023-04-29T16:30:44.901Z,6.00
2023-04-29T16:33:11.673Z,5.40
2023-04-29T16:35:38.569Z,5.10
2023-04-29T16:38:07.621Z,5.20
2023-04-29T16:40:34.781Z,5.00
2023-04-29T16:43:01.567Z,5.03
2023-04-29T16:45:29.343Z,5.00
2023-04-29T16:47:58.313Z,4.50
2023-04-29T16:50:27.935Z,4.83
2023-04-29T16:52:54.764Z,5.03
2023-04-29T16:55:30.889Z,4.83
2023-04-29T16:57:58.612Z,5.37
2023-04-29T17:00:25.612Z,5.10
2023-04-29T17:02:53.021Z,5.13
2023-04-29T17:05:20.204Z,4.47
2023-04-29T17:07:47.355Z,5.23
2023-04-29T17:10:14.054Z,5.13
2023-04-29T17:12:40.884Z,5.13
2023-04-29T17:15:08.346Z,4.47
2023-04-29T17:17:35.223Z,4.90
2023-04-29T17:20:02.312Z,5.47
2023-04-29T17:22:29.136Z,4.90
2023-04-29T17:24:58.626Z,5.50
2023-04-29T17:27:25.652Z,5.43
2023-04-29T17:29:52.815Z,5.90
2023-04-29T17:32:28.154Z,5.03
2023-04-29T17:34:59.508Z,5.30
2023-04-29T17:37:26.639Z,5.60
2023-04-29T17:39:53.712Z,5.37
2023-04-29T17:42:23.569Z,4.97
2023-04-29T17:44:50.416Z,5.00
2023-04-29T17:47:17.589Z,5.50
2023-04-29T17:49:44.589Z,5.43
2023-04-29T17:52:11.918Z,6.00
2023-04-29T17:54:39.869Z,6.07
2023-04-29T17:57:06.774Z,5.63
2023-04-29T17:59:33.582Z,5.67
2023-04-29T18:02:00.365Z,6.00
2023-04-29T18:04:27.253Z,6.07
2023-04-29T18:06:54.046Z,5.80
2023-04-29T18:09:21.577Z,6.30
2023-04-29T18:11:49.225Z,5.97
2023-04-29T18:14:16.687Z,5.27
2023-04-29T18:16:43.662Z,5.63
2023-04-29T18:19:10.562Z,6.13
2023-04-29T18:21:37.691Z,5.73
2023-04-29T18:24:05.244Z,7.10
2023-04-29T18:26:32.080Z,5.60
2023-04-29T18:28:59.090Z,5.43
2023-04-29T18:31:27.449Z,4.93
2023-04-29T18:33:54.344Z,4.57
2023-04-29T18:36:21.884Z,5.53
2023-04-29T18:38:48.902Z,4.73
2023-04-29T18:41:15.684Z,4.77
2023-04-29T18:43:42.636Z,5.60
2023-04-29T18:46:09.707Z,5.90
2023-04-29T18:48:38.341Z,5.80
2023-04-29T18:51:06.365Z,5.53
2023-04-29T18:53:37.831Z,5.70
2023-04-29T18:56:05.112Z,5.80
2023-04-29T18:58:31.960Z,6.07
2023-04-29T19:01:00.115Z,6.30
2023-04-29T19:03:27.280Z,5.53
2023-04-29T19:05:54.273Z,6.33
2023-04-29T19:08:21.258Z,5.90
2023-04-29T19:10:48.151Z,6.77
2023-04-29T19:13:14.884Z,8.40
2023-04-29T19:15:41.746Z,6.90
2023-04-29T19:18:08.480Z,5.70
2023-04-29T19:20:35.328Z,6.20
2023-04-29T19:23:02.249Z,6.13
2023-04-29T19:25:29.031Z,6.50
2023-04-29T19:27:56.192Z,5.67
2023-04-29T19:30:22.994Z,6.00
2023-04-29T19:32:49.813Z,5.80
2023-04-29T19:35:16.782Z,6.97
2023-04-29T19:37:44.262Z,6.20
2023-04-29T19:40:11.417Z,6.43
2023-04-29T19:42:39.333Z,6.63
2023-04-29T19:45:07.767Z,6.47
2023-04-29T19:47:35.027Z,6.50
2023-04-29T19:50:02.384Z,6.90
2023-04-29T19:52:29.872Z,6.77
2023-04-29T19:54:56.968Z,6.77
2023-04-29T19:57:23.980Z,6.80
2023-04-29T19:59:50.920Z,6.60
2023-04-29T20:02:17.728Z,7.60
2023-04-29T20:04:44.556Z,7.07
2023-04-29T20:07:11.496Z,7.80
2023-04-29T20:09:38.354Z,8.33
2023-04-29T20:12:05.337Z,8.03
2023-04-29T20:14:32.965Z,8.97
2023-04-29T20:17:00.655Z,8.63
2023-04-29T20:19:27.751Z,8.63
2023-04-29T20:21:54.627Z,9.43
2023-04-29T20:24:21.664Z,9.33
2023-04-29T20:26:48.535Z,10.37
2023-04-29T20:29:15.275Z,10.13
2023-04-29T20:31:42.211Z,10.43
2023-04-29T20:34:08.941Z,10.03
2023-04-29T20:36:35.670Z,10.60
2023-04-29T20:39:02.555Z,9.83
2023-04-29T20:41:29.424Z,10.20
2023-04-29T20:43:56.606Z,10.80
2023-04-29T20:46:27.307Z,10.50
2023-04-29T20:48:54.154Z,9.90
2023-04-29T20:51:21.081Z,10.20
2023-04-29T20:53:48.481Z,9.87
2023-04-29T20:56:16.211Z,10.07
2023-04-29T20:58:42.984Z,10.40
2023-04-29T21:01:19.855Z,10.30
2023-04-29T21:03:46.755Z,10.13
2023-04-29T21:06:13.831Z,10.00
2023-04-29T21:08:40.855Z,9.87
2023-04-29T21:11:10.184Z,9.87
2023-04-29T21:13:37.626Z,10.90
2023-04-29T21:16:04.629Z,10.60
2023-04-29T21:18:31.420Z,11.23
2023-04-29T21:20:58.058Z,11.20
2023-04-29T21:23:24.936Z,10.87
2023-04-29T21:25:51.758Z,10.97
2023-04-29T21:28:18.764Z,11.00
2023-04-29T21:30:45.508Z,11.60
2023-04-29T21:33:12.328Z,11.70
2023-04-29T21:35:42.171Z,11.30
2023-04-29T21:38:11.908Z,11.00
2023-04-29T21:40:41.605Z,10.80
2023-04-29T21:43:10.027Z,10.70
2023-04-29T21:45:36.780Z,11.17
2023-04-29T21:48:17.626Z,11.87
2023-04-29T21:50:47.705Z,11.97
2023-04-29T21:53:16.366Z,11.77
2023-04-29T21:55:43.442Z,11.17
2023-04-29T21:58:11.079Z,12.10
2023-04-29T22:00:40.636Z,11.57
2023-04-29T22:03:11.350Z,11.60
2023-04-29T22:05:39.765Z,11.53
2023-04-29T22:08:07.632Z,11.43
2023-04-29T22:10:34.945Z,11.90
2023-04-29T22:13:01.938Z,11.30
2023-04-29T22:15:29.663Z,11.10
2023-04-29T22:17:57.872Z,11.77
2023-04-29T22:20:25.169Z,10.80
2023-04-29T22:22:52.292Z,10.33
2023-04-29T22:25:22.138Z,10.30
2023-04-29T22:27:51.841Z,9.53
2023-04-29T22:30:22.021Z,9.60
2023-04-29T22:32:49.047Z,11.10
2023-04-29T22:35:16.249Z,10.57
2023-04-29T22:37:43.022Z,10.00
2023-04-29T22:40:10.569Z,9.07
2023-04-29T22:42:37.528Z,9.63
2023-04-29T22:45:04.606Z,9.50
2023-04-29T22:47:32.154Z,8.90
2023-04-29T22:49:58.954Z,8.43
2023-04-29T22:52:27.494Z,8.37
2023-04-29T22:54:54.569Z,8.40
2023-04-29T22:57:21.405Z,7.93
2023-04-29T22:59:49.308Z,8.40
2023-04-29T23:02:16.313Z,8.00
2023-04-29T23:04:43.005Z,8.47
2023-04-29T23:07:09.937Z,7.30
2023-04-29T23:09:37.080Z,7.70
2023-04-29T23:12:04.077Z,7.40
2023-04-29T23:14:31.236Z,7.50
2023-04-29T23:16:58.113Z,7.63
2023-04-29T23:19:24.875Z,7.53
2023-04-29T23:21:51.586Z,7.00
2023-04-29T23:24:18.394Z,6.70
2023-04-29T23:26:45.150Z,6.90
2023-04-29T23:29:12.001Z,6.70
2023-04-29T23:31:38.870Z,6.53
2023-04-29T23:34:05.623Z,6.93
2023-04-29T23:36:32.599Z,6.70
2023-04-29T23:38:59.506Z,6.60
2023-04-29T23:41:26.322Z,6.63
2023-04-29T23:43:53.058Z,6.73
2023-04-29T23:46:20.054Z,7.07
2023-04-29T23:48:46.749Z,6.40
2023-04-29T23:51:13.873Z,6.33
2023-04-29T23:53:40.736Z,7.17
2023-04-29T23:56:07.679Z,6.53
2023-04-29T23:58:34.504Z,6.47
